Time;durP1;ratioP1;P1;durP2;ratioP2;P2;SDS_P1;SDS_P2;PMS_P1;PMS_P2;Temp;Humidity;BMP_temperature;BMP_pressure;BME280_temperature;BME280_humidity;BME280_pressure;Samples;Min_cycle;Max_cycle;Signal;HPM_P1;HPM_P2
2024/02/08 00:00:38;;;;;;;1.88;0.80;;;19.80;50.30;;;;;;5084460;28;20031;-67
2024/02/08 00:03:08;;;;;;;1.42;0.75;;;19.70;50.20;;;;;;5081491;28;20095;-67
2024/02/08 00:05:37;;;;;;;1.65;1.08;;;19.70;50.20;;;;;;5084486;28;20040;-67
2024/02/08 00:08:03;;;;;;;1.57;0.80;;;19.70;50.20;;;;;;5098701;28;20028;-67
2024/02/08 00:10:29;;;;;;;1.30;0.80;;;19.70;50.20;;;;;;5081603;28;20043;-66
2024/02/08 00:12:54;;;;;;;1.00;0.70;;;19.70;50.20;;;;;;5080014;28;20029;-65
2024/02/08 00:15:20;;;;;;;1.80;0.80;;;19.70;50.20;;;;;;5078841;28;20131;-66
2024/02/08 00:17:49;;;;;;;1.35;0.70;;;19.70;50.10;;;;;;5080885;28;20021;-66
2024/02/08 00:20:15;;;;;;;1.80;0.82;;;19.70;50.10;;;;;;5083610;28;20041;-67
2024/02/08 00:22:46;;;;;;;1.55;1.00;;;19.70;50.20;;;;;;5083272;28;20024;-66
2024/02/08 00:25:12;;;;;;;0.88;0.65;;;19.70;50.20;;;;;;5081559;28;20030;-66
2024/02/08 00:27:38;;;;;;;1.35;0.88;;;19.70;50.20;;;;;;5081164;28;20106;-66
2024/02/08 00:30:04;;;;;;;1.70;0.80;;;19.60;50.10;;;;;;5081200;28;20041;-67
2024/02/08 00:32:30;;;;;;;1.48;0.90;;;19.60;50.10;;;;;;5081715;28;20109;-67
2024/02/08 00:34:56;;;;;;;1.25;0.70;;;19.60;50.10;;;;;;5083160;28;20384;-62
2024/02/08 00:37:22;;;;;;;1.40;0.80;;;19.60;50.60;;;;;;5082331;28;20024;-61
2024/02/08 00:39:47;;;;;;;1.27;0.80;;;19.60;50.10;;;;;;5082201;28;20334;-62
2024/02/08 00:42:13;;;;;;;1.23;0.70;;;19.60;50.10;;;;;;5081341;28;21042;-62
2024/02/08 00:44:43;;;;;;;0.52;0.50;;;19.60;50.10;;;;;;5083067;28;20029;-63
2024/02/08 00:47:11;;;;;;;1.15;0.80;;;19.60;50.10;;;;;;5084181;28;20028;-62
2024/02/08 00:49:39;;;;;;;1.42;0.90;;;19.60;50.10;;;;;;5082684;28;20031;-62
2024/02/08 00:52:07;;;;;;;1.13;0.70;;;19.60;50.10;;;;;;5083047;28;20329;-62
2024/02/08 00:54:34;;;;;;;1.48;0.80;;;19.60;50.10;;;;;;5082017;28;20020;-62
2024/02/08 00:57:00;;;;;;;2.05;0.80;;;19.60;50.10;;;;;;5079288;28;20453;-62
2024/02/08 00:59:25;;;;;;;1.17;0.60;;;19.60;50.10;;;;;;5063287;28;20024;-63
2024/02/08 01:01:51;;;;;;;0.98;0.77;;;19.60;50.10;;;;;;5079571;28;20036;-62
2024/02/08 01:04:21;;;;;;;0.95;0.70;;;19.60;50.10;;;;;;5084267;28;20061;-62
2024/02/08 01:06:47;;;;;;;;;;;19.60;50.10;;;;;;5080749;28;20020;-62
2024/02/08 01:09:12;;;;;;;1.23;0.70;;;19.60;50.00;;;;;;5080424;28;20418;-62
2024/02/08 01:11:38;;;;;;;0.95;0.60;;;19.60;50.00;;;;;;5081065;28;20026;-63
2024/02/08 01:14:03;;;;;;;1.42;0.65;;;19.60;50.00;;;;;;5077846;28;20139;-62
2024/02/08 01:16:33;;;;;;;1.30;0.75;;;19.60;50.00;;;;;;5081145;28;20357;-61
2024/02/08 01:18:59;;;;;;;1.13;0.70;;;19.60;50.00;;;;;;5082615;28;20029;-62
2024/02/08 01:21:26;;;;;;;1.48;0.80;;;19.50;50.00;;;;;;5079992;28;20039;-61
2024/02/08 01:23:52;;;;;;;1.15;0.70;;;19.50;50.00;;;;;;5080913;28;20020;-62
2024/02/08 01:26:18;;;;;;;1.15;0.63;;;19.50;50.00;;;;;;5080401;28;20032;-62
2024/02/08 01:28:44;;;;;;;1.58;0.77;;;19.50;50.00;;;;;;5079482;28;20032;-63
2024/02/08 01:31:10;;;;;;;1.33;0.82;;;19.50;50.00;;;;;;5080688;28;20436;-62
2024/02/08 01:33:36;;;;;;;1.05;0.50;;;19.50;50.00;;;;;;5080860;28;20103;-62
2024/02/08 01:36:02;;;;;;;1.27;0.60;;;19.50;50.00;;;;;;5080892;28;20020;-61
2024/02/08 01:38:28;;;;;;;1.08;0.75;;;19.50;50.00;;;;;;5081323;28;20075;-62
2024/02/08 01:40:55;;;;;;;0.88;0.70;;;19.50;50.00;;;;;;5080855;28;20020;-63
2024/02/08 01:43:20;;;;;;;1.15;0.70;;;19.50;50.00;;;;;;5079748;28;20136;-67
2024/02/08 01:45:46;;;;;;;1.75;0.70;;;19.50;50.00;;;;;;5080066;28;20060;-66
2024/02/08 01:48:15;;;;;;;1.40;0.88;;;19.50;50.00;;;;;;5081753;28;20044;-67
2024/02/08 01:50:42;;;;;;;0.80;0.55;;;19.50;50.00;;;;;;5079713;28;20531;-67
2024/02/08 01:53:13;;;;;;;1.08;0.70;;;19.50;50.00;;;;;;5077239;28;20028;-63
2024/02/08 01:55:40;;;;;;;1.40;0.80;;;19.40;49.90;;;;;;5076816;28;20412;-61
2024/02/08 01:58:07;;;;;;;1.27;0.80;;;19.50;50.00;;;;;;5076721;28;20027;-62
2024/02/08 02:00:36;;;;;;;1.15;0.63;;;19.50;50.00;;;;;;5077409;28;20059;-62
2024/02/08 02:03:03;;;;;;;1.42;0.60;;;19.50;50.00;;;;;;5078221;28;20020;-61
2024/02/08 02:05:29;;;;;;;0.70;0.60;;;19.40;49.90;;;;;;5069019;28;20043;-62
2024/02/08 02:07:56;;;;;;;1.00;0.60;;;19.40;49.90;;;;;;5079747;28;20450;-62
2024/02/08 02:10:29;;;;;;;0.68;0.57;;;19.40;49.90;;;;;;5071343;28;20541;-63
2024/02/08 02:12:59;;;;;;;0.88;0.60;;;19.40;49.90;;;;;;5079281;28;20020;-63
2024/02/08 02:15:31;;;;;;;1.27;0.70;;;19.40;49.90;;;;;;5079465;28;20032;-63
2024/02/08 02:18:00;;;;;;;0.88;0.60;;;19.40;49.90;;;;;;5077724;28;20054;-62
2024/02/08 02:20:29;;;;;;;0.73;0.52;;;19.40;49.90;;;;;;5070250;28;20060;-62
2024/02/08 02:23:00;;;;;;;1.08;0.70;;;19.40;49.90;;;;;;5078910;28;20028;-62
2024/02/08 02:25:27;;;;;;;0.60;0.60;;;19.40;49.90;;;;;;5080555;28;20028;-62
2024/02/08 02:28:00;;;;;;;1.00;0.70;;;19.40;49.90;;;;;;5077346;28;20119;-62
2024/02/08 02:30:27;;;;;;;1.13;0.70;;;19.40;49.90;;;;;;5078054;28;20078;-63
2024/02/08 02:32:56;;;;;;;1.17;0.60;;;19.40;49.90;;;;;;5079189;28;20037;-62
2024/02/08 02:35:22;;;;;;;0.85;0.70;;;19.40;49.90;;;;;;5077318;28;20414;-62
2024/02/08 02:37:50;;;;;;;1.15;0.70;;;19.40;49.90;;;;;;5082302;28;20032;-62
2024/02/08 02:40:23;;;;;;;1.02;0.70;;;19.40;49.90;;;;;;5079550;28;20348;-62
2024/02/08 02:42:52;;;;;;;0.82;0.60;;;19.40;49.90;;;;;;5079103;28;20078;-62
2024/02/08 02:45:23;;;;;;;;;;;19.40;50.00;;;;;;5078558;28;20031;-62
2024/02/08 02:47:53;;;;;;;1.10;0.70;;;19.40;49.90;;;;;;5078756;28;19912;-62
2024/02/08 02:50:23;;;;;;;0.95;0.65;;;19.40;49.90;;;;;;5062295;28;20460;-61
2024/02/08 02:52:50;;;;;;;1.00;0.60;;;19.40;49.90;;;;;;5081266;28;20074;-62
2024/02/08 02:55:16;;;;;;;1.25;0.60;;;19.40;49.90;;;;;;5069507;28;20336;-63
2024/02/08 02:57:42;;;;;;;1.65;0.55;;;19.30;49.90;;;;;;5077018;28;20046;-63
2024/02/08 03:00:21;;;;;;;0.88;0.60;;;19.30;49.90;;;;;;5079735;28;20408;-62
2024/02/08 03:02:48;;;;;;;1.08;0.70;;;19.40;49.90;;;;;;5079251;28;20028;-63
2024/02/08 03:05:14;;;;;;;1.67;0.60;;;19.40;49.90;;;;;;5080419;28;20033;-64
2024/02/08 03:07:42;;;;;;;0.82;0.73;;;19.30;49.90;;;;;;5081255;28;20055;-62
2024/02/08 03:10:11;;;;;;;1.23;0.70;;;19.30;49.90;;;;;;5076636;28;20020;-63
2024/02/08 03:12:37;;;;;;;1.00;0.63;;;19.30;49.90;;;;;;5079031;28;20051;-63
2024/02/08 03:15:03;;;;;;;0.77;0.60;;;19.30;49.90;;;;;;5093607;28;20369;-63
2024/02/08 03:17:32;;;;;;;0.70;0.50;;;19.30;49.90;;;;;;5079683;28;20035;-62
2024/02/08 03:19:57;;;;;;;0.70;0.50;;;19.30;49.90;;;;;;5079405;28;20443;-64
2024/02/08 03:22:23;;;;;;;0.77;0.57;;;19.30;49.90;;;;;;5078929;28;20045;-63
2024/02/08 03:24:49;;;;;;;0.75;0.60;;;19.30;49.90;;;;;;5076943;28;20472;-63
2024/02/08 03:27:21;;;;;;;0.73;0.50;;;19.30;49.90;;;;;;5080218;28;20194;-63
2024/02/08 03:29:53;;;;;;;0.80;0.50;;;19.30;49.80;;;;;;5076943;28;20064;-63
2024/02/08 03:32:23;;;;;;;0.55;0.55;;;19.30;49.90;;;;;;5053530;28;20031;-63
2024/02/08 03:34:52;;;;;;;1.08;0.60;;;19.30;49.90;;;;;;5059742;28;20058;-63
2024/02/08 03:37:20;;;;;;;1.27;0.60;;;19.30;49.90;;;;;;5077656;28;20037;-63
2024/02/08 03:39:46;;;;;;;0.80;0.50;;;19.30;49.80;;;;;;5077445;28;20020;-63
2024/02/08 03:42:14;;;;;;;1.17;0.60;;;19.30;49.80;;;;;;5079180;28;20170;-64
2024/02/08 03:44:39;;;;;;;0.43;0.40;;;19.30;49.90;;;;;;5079766;28;20028;-63
2024/02/08 03:47:07;;;;;;;0.73;0.60;;;19.30;49.80;;;;;;5081553;28;20570;-63
2024/02/08 03:49:35;;;;;;;0.50;0.50;;;19.20;49.80;;;;;;5073057;28;20024;-63
2024/02/08 03:52:01;;;;;;;0.80;0.60;;;19.30;49.80;;;;;;5073598;28;20029;-63
2024/02/08 03:54:30;;;;;;;0.90;0.70;;;19.20;49.70;;;;;;5077391;28;20020;-63
2024/02/08 03:56:59;;;;;;;0.50;0.50;;;19.20;49.80;;;;;;5075925;28;20085;-63
2024/02/08 03:59:26;;;;;;;1.40;0.70;;;19.20;49.70;;;;;;5092046;28;20587;-63
2024/02/08 04:02:10;;;;;;;0.90;0.60;;;19.20;49.70;;;;;;5077622;28;20480;-63
2024/02/08 04:04:53;;;;;;;0.82;0.60;;;19.20;49.70;;;;;;5071319;28;20040;-67
2024/02/08 04:07:22;;;;;;;0.98;0.70;;;19.20;49.70;;;;;;5069768;28;20064;-67
2024/02/08 04:10:10;;;;;;;0.60;0.50;;;19.20;49.70;;;;;;5079358;28;20028;-67
2024/02/08 04:53:57;;;;;;;0.77;0.52;;;19.10;49.80;;;;;;5082295;28;20445;-67
2024/02/08 04:56:23;;;;;;;0.85;0.60;;;19.20;50.00;;;;;;5083070;28;20032;-67
2024/02/08 04:58:50;;;;;;;1.08;0.50;;;19.10;50.70;;;;;;5080430;28;20123;-67
2024/02/08 05:01:17;;;;;;;0.77;0.50;;;19.20;50.30;;;;;;5081179;28;20032;-67
2024/02/08 05:03:43;;;;;;;0.55;0.45;;;19.10;50.30;;;;;;5080149;28;20457;-67
2024/02/08 05:06:18;;;;;;;1.13;0.50;;;19.10;50.40;;;;;;5082776;28;20024;-67
2024/02/08 05:08:48;;;;;;;0.90;0.68;;;19.20;50.50;;;;;;5078381;28;20033;-68
2024/02/08 05:11:15;;;;;;;0.70;0.60;;;19.10;50.50;;;;;;5082451;28;20021;-66
2024/02/08 05:13:42;;;;;;;0.80;0.57;;;19.10;50.50;;;;;;5078325;28;20437;-67
2024/02/08 05:16:14;;;;;;;0.88;0.50;;;19.10;50.50;;;;;;5080829;28;20510;-63
2024/02/08 05:18:41;;;;;;;0.57;0.57;;;19.10;50.60;;;;;;5080569;28;20024;-63
2024/02/08 05:21:09;;;;;;;0.60;0.50;;;19.10;50.60;;;;;;5082423;28;20353;-63
2024/02/08 05:23:38;;;;;;;0.63;0.40;;;19.10;50.70;;;;;;5079585;28;20028;-63
2024/02/08 05:26:18;;;;;;;1.98;0.70;;;19.20;50.80;;;;;;5080825;28;20538;-63
2024/02/08 05:28:45;;;;;;;0.45;0.40;;;19.20;50.80;;;;;;5080670;28;20144;-63
2024/02/08 05:31:10;;;;;;;0.95;0.60;;;19.20;50.90;;;;;;5079434;28;20036;-63
2024/02/08 05:33:40;;;;;;;0.63;0.50;;;19.10;50.80;;;;;;5080977;28;20730;-63
2024/02/08 05:36:12;;;;;;;;;;;19.20;50.80;;;;;;5083443;28;20066;-62
2024/02/08 05:38:41;;;;;;;0.88;0.60;;;19.10;50.70;;;;;;5078870;28;19915;-63
2024/02/08 05:41:08;;;;;;;0.82;0.60;;;19.10;50.60;;;;;;5081125;28;20445;-63
2024/02/08 05:43:47;;;;;;;0.85;0.60;;;19.10;50.60;;;;;;5082492;28;20032;-63
2024/02/08 05:46:28;;;;;;;0.93;0.68;;;19.10;50.60;;;;;;5079054;28;20507;-63
2024/02/08 05:49:13;;;;;;;1.02;0.60;;;19.10;50.60;;;;;;5081370;28;20071;-62
2024/02/08 05:51:46;;;;;;;1.27;0.55;;;19.10;50.60;;;;;;5079625;28;20032;-62
2024/02/08 05:54:16;;;;;;;0.50;0.50;;;19.10;50.70;;;;;;5079583;28;20036;-63
2024/02/08 05:56:43;;;;;;;1.67;0.60;;;19.10;50.70;;;;;;5080253;28;20119;-62
2024/02/08 05:59:09;;;;;;;1.20;0.60;;;19.10;50.70;;;;;;5081731;28;20362;-63
2024/02/08 06:01:47;;;;;;;0.68;0.52;;;19.10;50.70;;;;;;5078908;28;20575;-62
2024/02/08 06:04:24;;;;;;;1.15;0.70;;;19.10;50.70;;;;;;5080538;28;20096;-62
2024/02/08 06:07:05;;;;;;;0.95;0.57;;;19.10;50.70;;;;;;5073083;28;20029;-62
2024/02/08 06:12:23;;;;;;;2.42;0.80;;;19.10;50.70;;;;;;5082083;28;20024;-62
2024/02/08 06:14:57;;;;;;;2.05;0.60;;;19.10;50.80;;;;;;5077433;28;20357;-62
2024/02/08 06:17:32;;;;;;;1.73;0.60;;;19.10;50.70;;;;;;5079635;28;20024;-62
2024/02/08 06:20:00;;;;;;;2.92;0.80;;;19.10;50.80;;;;;;5077194;28;20929;-62
2024/02/08 06:22:30;;;;;;;0.90;0.60;;;19.10;50.80;;;;;;5079107;28;20379;-62
2024/02/08 06:25:45;;;;;;;2.13;0.80;;;19.20;50.80;;;;;;5079151;28;20440;-61
2024/02/08 06:27:41;;;;;;;3.00;0.80;;;19.10;50.80;;;;;;5062880;28;20051;-62
2024/02/08 06:30:18;;;;;;;1.50;0.73;;;19.10;50.80;;;;;;5076742;28;20024;-61
2024/02/08 06:32:44;;;;;;;1.85;0.77;;;19.10;50.80;;;;;;5079327;28;20032;-62
2024/02/08 06:35:25;;;;;;;1.92;0.80;;;19.10;50.90;;;;;;5079861;28;20027;-64
2024/02/08 06:38:00;;;;;;;1.60;0.80;;;19.10;50.80;;;;;;5081644;28;20032;-61
2024/02/08 06:40:50;;;;;;;1.98;0.80;;;19.10;50.80;;;;;;5079578;28;20032;-61
2024/02/08 07:37:38;;;;;;;2.70;0.82;;;19.10;50.80;;;;;;5071809;28;20553;-64
2024/02/08 07:43:19;;;;;;;1.80;0.90;;;19.10;50.90;;;;;;5077587;28;20484;-64
2024/02/08 07:45:55;;;;;;;2.08;0.95;;;19.10;50.90;;;;;;5076666;28;20318;-62
2024/02/08 07:48:43;;;;;;;3.75;0.80;;;19.10;50.90;;;;;;5077281;28;20036;-61
2024/02/08 07:51:09;;;;;;;1.60;0.70;;;19.10;50.90;;;;;;5079643;28;20024;-62
2024/02/08 07:53:45;;;;;;;2.10;0.90;;;19.10;50.80;;;;;;5078139;28;20073;-62
2024/02/08 07:59:04;;;;;;;1.90;0.80;;;19.10;50.80;;;;;;5076857;28;20020;-61
2024/02/08 08:01:38;;;;;;;1.85;0.80;;;19.10;50.90;;;;;;5076840;28;20098;-62
2024/02/08 08:04:08;;;;;;;2.15;0.90;;;19.10;50.90;;;;;;5080171;28;20024;-62
2024/02/08 08:06:52;;;;;;;1.75;0.88;;;19.10;50.90;;;;;;5077627;28;20085;-62
2024/02/08 08:09:26;;;;;;;1.75;0.80;;;19.10;50.90;;;;;;5080275;28;20024;-63
2024/02/08 08:11:52;;;;;;;1.52;0.80;;;19.10;51.00;;;;;;5079355;28;20028;-61
2024/02/08 08:17:08;;;;;;;2.08;1.15;;;19.10;50.90;;;;;;5076975;28;20046;-61
2024/02/08 08:19:44;;;;;;;2.28;0.80;;;19.10;50.90;;;;;;5082496;28;20417;-61
2024/02/08 08:22:50;;;;;;;2.10;0.80;;;19.10;50.90;;;;;;5080673;28;20109;-61
2024/02/08 08:27:53;;;;;;;1.65;0.90;;;19.10;50.90;;;;;;5081661;28;20036;-62
2024/02/08 08:30:28;;;;;;;1.45;0.70;;;19.10;50.90;;;;;;5079063;28;20519;-62
2024/02/08 08:35:45;;;;;;;1.27;0.70;;;19.10;50.90;;;;;;5084050;28;20028;-62
2024/02/08 08:40:54;;;;;;;1.35;0.70;;;19.10;51.20;;;;;;5081972;28;20115;-61
2024/02/08 08:43:19;;;;;;;1.42;0.70;;;19.10;51.30;;;;;;5072557;28;20028;-61
2024/02/08 08:45:50;;;;;;;1.73;0.70;;;19.10;51.20;;;;;;5080877;28;20592;-64
2024/02/08 08:48:18;;;;;;;1.88;0.90;;;19.10;51.30;;;;;;5081665;28;20119;-64
2024/02/08 08:50:50;;;;;;;1.80;0.70;;;19.10;51.30;;;;;;5081210;28;20039;-64
2024/02/08 08:53:19;;;;;;;1.67;0.80;;;19.10;51.40;;;;;;5081540;28;20459;-64
2024/02/08 08:55:49;;;;;;;;;;;19.10;51.40;;;;;;5083789;28;20078;-66
2024/02/08 08:58:15;;;;;;;1.25;0.80;;;19.10;51.40;;;;;;5081120;28;19912;-66
2024/02/08 09:00:46;;;;;;;1.60;0.80;;;19.10;51.40;;;;;;5079978;28;20039;-66
2024/02/08 09:03:27;;;;;;;2.03;0.70;;;19.10;51.20;;;;;;5081943;28;20028;-66
2024/02/08 09:05:57;;;;;;;1.77;0.80;;;19.10;51.20;;;;;;5061758;28;20039;-66
2024/02/08 09:08:33;;;;;;;;;;;19.10;51.20;;;;;;5082823;28;20042;-66
2024/02/08 09:11:03;;;;;;;1.60;0.70;;;19.10;51.10;;;;;;5081985;28;19914;-66
2024/02/08 09:13:30;;;;;;;1.63;0.80;;;19.10;51.10;;;;;;5080245;28;20043;-66
2024/02/08 09:21:26;;;;;;;3.05;0.82;;;19.10;51.00;;;;;;5081693;28;20105;-66
2024/02/08 09:23:52;;;;;;;1.45;0.73;;;19.10;51.00;;;;;;5080950;28;20024;-66
2024/02/08 09:26:24;;;;;;;1.55;0.80;;;19.10;51.00;;;;;;5082975;28;20401;-66
2024/02/08 09:28:50;;;;;;;1.23;0.75;;;19.10;51.10;;;;;;5077856;28;20033;-65
2024/02/08 09:31:17;;;;;;;1.70;0.90;;;19.10;51.10;;;;;;5081471;28;20107;-66
2024/02/08 09:34:00;;;;;;;2.63;1.17;;;19.10;51.10;;;;;;5078848;28;20024;-66
2024/02/08 09:36:26;;;;;;;1.13;0.70;;;19.10;51.00;;;;;;5080663;28;20074;-66
2024/02/08 09:38:52;;;;;;;1.88;0.80;;;19.10;51.10;;;;;;5079466;28;20102;-66
2024/02/08 09:41:23;;;;;;;0.93;0.60;;;19.10;51.10;;;;;;5061394;28;20048;-66
2024/02/08 09:43:56;;;;;;;1.15;0.70;;;19.10;51.50;;;;;;5061399;28;20051;-66
2024/02/08 09:46:49;;;;;;;1.02;0.55;;;19.10;51.00;;;;;;5079641;28;20137;-66
2024/02/08 09:49:17;;;;;;;1.65;0.70;;;19.10;51.00;;;;;;5079505;28;20063;-66
2024/02/08 09:51:53;;;;;;;1.60;0.93;;;19.10;51.00;;;;;;5080700;28;20103;-66
2024/02/08 09:54:31;;;;;;;1.20;0.70;;;19.10;51.00;;;;;;5082984;28;20051;-66
2024/02/08 09:57:20;;;;;;;1.10;0.65;;;19.10;51.00;;;;;;5081611;28;20037;-66
2024/02/08 10:00:02;;;;;;;1.08;0.75;;;19.10;51.00;;;;;;5079854;28;20033;-67
2024/02/08 10:02:33;;;;;;;1.30;0.63;;;19.10;51.00;;;;;;5080127;28;20077;-67
2024/02/08 10:05:19;;;;;;;1.58;0.70;;;19.10;51.10;;;;;;5081901;28;20020;-61
2024/02/08 10:08:05;;;;;;;2.00;0.98;;;19.10;51.00;;;;;;5081822;28;20043;-62
2024/02/08 10:10:33;;;;;;;2.10;0.88;;;19.10;51.00;;;;;;5094882;28;20020;-63
2024/02/08 10:13:05;;;;;;;1.77;0.88;;;19.10;51.10;;;;;;5079694;28;20473;-63
2024/02/08 10:15:43;;;;;;;1.40;0.60;;;19.10;51.00;;;;;;5071658;28;20032;-62
2024/02/08 10:18:22;;;;;;;1.40;0.70;;;19.10;51.10;;;;;;5078238;28;20047;-61
2024/02/08 10:20:49;;;;;;;1.45;0.90;;;19.10;51.10;;;;;;5081218;28;20036;-62
2024/02/08 10:23:35;;;;;;;1.77;0.70;;;19.10;51.10;;;;;;5076460;28;20460;-62
2024/02/08 10:26:20;;;;;;;1.63;0.85;;;19.10;51.10;;;;;;5080017;28;20028;-62
2024/02/08 10:28:53;;;;;;;1.35;0.63;;;19.10;51.10;;;;;;5078850;28;20028;-62
2024/02/08 10:31:24;;;;;;;1.30;0.70;;;19.10;51.10;;;;;;5077594;28;20032;-62
2024/02/08 10:33:57;;;;;;;1.35;0.80;;;19.10;51.10;;;;;;5078613;28;20028;-63
2024/02/08 10:36:31;;;;;;;0.90;0.70;;;19.10;51.20;;;;;;5079305;28;20504;-62
2024/02/08 10:39:07;;;;;;;0.88;0.60;;;19.10;51.10;;;;;;5073206;28;20380;-62
2024/02/08 10:44:22;;;;;;;0.85;0.55;;;19.10;51.20;;;;;;5081035;28;20039;-63
2024/02/08 10:46:55;;;;;;;1.65;0.77;;;19.10;51.20;;;;;;5080777;28;20043;-63
2024/02/08 10:49:22;;;;;;;1.70;0.98;;;19.10;51.10;;;;;;5080423;28;20032;-64
2024/02/08 10:51:49;;;;;;;0.98;0.73;;;19.10;51.20;;;;;;5079435;28;20021;-63
2024/02/08 10:54:16;;;;;;;1.13;0.70;;;19.10;51.20;;;;;;5078546;28;20441;-62
2024/02/08 10:56:48;;;;;;;0.80;0.55;;;19.10;51.20;;;;;;5079868;28;20138;-62
2024/02/08 11:02:01;;;;;;;1.50;0.70;;;19.10;51.20;;;;;;5078147;28;20566;-63
2024/02/08 11:04:28;;;;;;;0.85;0.63;;;19.10;51.20;;;;;;5080288;28;20480;-64
2024/02/08 11:07:16;;;;;;;0.63;0.55;;;19.10;51.20;;;;;;5077877;28;20436;-67
2024/02/08 11:09:44;;;;;;;0.93;0.60;;;19.10;51.20;;;;;;5080791;28;20533;-67
2024/02/08 11:12:29;;;;;;;0.57;0.50;;;19.10;51.20;;;;;;5080043;28;20804;-66
2024/02/08 11:15:13;;;;;;;1.20;0.70;;;19.10;51.20;;;;;;5078861;28;20032;-63
2024/02/08 11:17:45;;;;;;;1.00;0.60;;;19.10;51.20;;;;;;5080139;28;20111;-62
2024/02/08 11:20:17;;;;;;;1.35;0.65;;;19.10;51.20;;;;;;5080773;28;20396;-63
2024/02/08 11:22:43;;;;;;;0.70;0.60;;;19.10;51.20;;;;;;5081093;28;20032;-62
2024/02/08 11:25:33;;;;;;;1.02;0.60;;;19.10;51.20;;;;;;5078926;28;20078;-63
2024/02/08 11:28:08;;;;;;;1.27;0.70;;;19.10;51.20;;;;;;5077784;28;20020;-62
2024/02/08 11:30:34;;;;;;;0.55;0.50;;;19.10;51.20;;;;;;5079199;28;20036;-64
2024/02/08 11:33:02;;;;;;;0.95;0.60;;;19.10;51.20;;;;;;5078198;28;20028;-63
2024/02/08 11:35:35;;;;;;;1.20;0.50;;;19.10;51.20;;;;;;5077480;28;20032;-64
2024/02/08 11:38:15;;;;;;;0.75;0.57;;;19.10;51.20;;;;;;5077904;28;20025;-64
2024/02/08 11:40:45;;;;;;;0.65;0.60;;;19.10;51.20;;;;;;5060414;28;20035;-62
2024/02/08 11:43:24;;;;;;;0.68;0.50;;;19.10;51.20;;;;;;5077335;28;20063;-63
2024/02/08 11:45:53;;;;;;;1.50;0.70;;;19.10;51.20;;;;;;5079769;28;20059;-63
2024/02/08 11:48:41;;;;;;;1.05;0.60;;;19.10;51.20;;;;;;5058606;28;20033;-63
2024/02/08 11:51:11;;;;;;;1.25;0.60;;;19.10;51.20;;;;;;5077474;28;20031;-64
2024/02/08 11:53:39;;;;;;;1.60;0.80;;;19.10;51.20;;;;;;5082849;28;20020;-62
2024/02/08 11:56:08;;;;;;;0.93;0.57;;;19.10;51.10;;;;;;5085941;28;20138;-63
2024/02/08 11:58:42;;;;;;;0.82;0.60;;;19.10;51.10;;;;;;5081700;28;20024;-63
2024/02/08 12:01:13;;;;;;;0.98;0.52;;;19.10;51.00;;;;;;5084263;28;20031;-63
2024/02/08 12:03:43;;;;;;;1.20;0.70;;;19.10;51.00;;;;;;5084536;28;20480;-63
2024/02/08 12:06:17;;;;;;;1.73;0.50;;;19.10;51.00;;;;;;5083587;28;20503;-62
2024/02/08 12:09:03;;;;;;;1.02;0.52;;;19.10;51.00;;;;;;5088640;28;20065;-63
2024/02/08 12:11:33;;;;;;;0.82;0.50;;;19.10;51.00;;;;;;5082747;28;20428;-63
2024/02/08 12:14:10;;;;;;;0.90;0.73;;;19.10;51.00;;;;;;5085410;28;20529;-63
2024/02/08 12:16:46;;;;;;;1.60;0.70;;;19.10;51.00;;;;;;5102971;28;20808;-67
2024/02/08 12:19:18;;;;;;;0.90;0.70;;;19.10;51.00;;;;;;5082338;28;20388;-66
2024/02/08 12:21:52;;;;;;;2.00;0.60;;;19.10;51.00;;;;;;5083184;28;20085;-66
2024/02/08 12:24:18;;;;;;;1.13;0.60;;;19.10;51.00;;;;;;5084304;28;20388;-67
2024/02/08 12:26:45;;;;;;;0.77;0.50;;;19.10;51.10;;;;;;5085171;28;20028;-62
2024/02/08 12:29:18;;;;;;;1.73;0.60;;;19.10;51.60;;;;;;5085237;28;20118;-63
2024/02/08 12:31:48;;;;;;;1.00;0.60;;;19.10;51.00;;;;;;5086378;28;20044;-63
2024/02/08 12:34:17;;;;;;;0.88;0.60;;;19.10;51.00;;;;;;5082567;28;20055;-62
2024/02/08 12:36:45;;;;;;;0.50;0.50;;;19.10;51.00;;;;;;5083775;28;20056;-63
2024/02/08 12:39:18;;;;;;;0.88;0.60;;;19.10;51.50;;;;;;5085806;28;20059;-62
2024/02/08 12:41:53;;;;;;;0.80;0.60;;;19.10;51.00;;;;;;5084119;28;20093;-62
2024/02/08 12:44:24;;;;;;;1.55;0.70;;;19.10;51.00;;;;;;5085222;28;20016;-62
2024/02/08 12:46:56;;;;;;;1.10;0.60;;;19.10;51.00;;;;;;5084155;28;20558;-64
2024/02/08 12:49:22;;;;;;;1.63;0.70;;;19.10;51.00;;;;;;5085367;28;20028;-62
2024/02/08 12:51:49;;;;;;;0.77;0.60;;;19.10;51.00;;;;;;5085638;28;20021;-62
2024/02/08 12:54:15;;;;;;;0.93;0.60;;;19.10;51.60;;;;;;5082921;28;20078;-62
2024/02/08 12:56:45;;;;;;;1.17;0.65;;;19.10;51.00;;;;;;5085497;28;20056;-63
2024/02/08 12:59:11;;;;;;;0.95;0.40;;;19.10;51.10;;;;;;5085817;28;20028;-63
2024/02/08 13:01:47;;;;;;;0.95;0.50;;;19.10;51.10;;;;;;5085964;28;20043;-62
2024/02/08 13:04:22;;;;;;;1.20;0.60;;;19.10;51.10;;;;;;5077939;28;20044;-62
2024/02/08 13:06:49;;;;;;;1.55;0.68;;;19.10;51.10;;;;;;5080987;28;20086;-63
2024/02/08 13:09:26;;;;;;;1.20;0.60;;;19.10;51.10;;;;;;5082955;28;20104;-62
2024/02/08 13:12:23;;;;;;;1.30;0.70;;;19.10;51.20;;;;;;5080592;28;20456;-64
2024/02/08 13:14:48;;;;;;;1.80;0.60;;;19.10;51.30;;;;;;5078004;28;20506;-63
2024/02/08 13:17:21;;;;;;;3.00;0.70;;;19.10;51.50;;;;;;5081992;28;20028;-63
2024/02/08 13:19:55;;;;;;;2.50;0.60;;;19.10;51.70;;;;;;5081215;28;20024;-62
2024/02/08 13:22:24;;;;;;;2.80;0.60;;;19.10;51.80;;;;;;5077862;28;20060;-62
2024/02/08 13:24:53;;;;;;;;;;;19.10;51.70;;;;;;5081096;28;20032;-62
2024/02/08 13:27:30;;;;;;;2.13;0.70;;;19.10;51.80;;;;;;5080339;28;20371;-62
2024/02/08 13:29:57;;;;;;;0.98;0.50;;;19.10;51.70;;;;;;5081279;28;20043;-62
2024/02/08 13:32:27;;;;;;;2.35;0.73;;;19.10;51.70;;;;;;5081695;28;20033;-62
2024/02/08 13:34:52;;;;;;;;;;;19.10;51.80;;;;;;5080729;28;20075;-71
2024/02/08 13:37:18;;;;;;;1.08;0.57;;;19.10;51.90;;;;;;5079353;28;20324;-73
2024/02/08 13:39:45;;;;;;;1.88;0.60;;;19.10;51.80;;;;;;5079008;28;20251;-72
2024/02/08 13:42:12;;;;;;;1.90;0.70;;;19.10;51.80;;;;;;5076831;28;20028;-70
2024/02/08 13:44:38;;;;;;;2.63;0.80;;;19.10;52.00;;;;;;5079622;28;20373;-70
2024/02/08 13:47:05;;;;;;;2.20;0.65;;;19.10;52.00;;;;;;5079709;28;20132;-72
2024/02/08 13:49:34;;;;;;;1.58;0.88;;;19.10;52.10;;;;;;5079457;28;20028;-72
2024/02/08 13:52:01;;;;;;;2.38;0.80;;;19.10;52.20;;;;;;5080553;28;20115;-73
2024/02/08 13:54:28;;;;;;;2.42;0.60;;;19.10;52.20;;;;;;5079940;28;20016;-72
2024/02/08 13:56:56;;;;;;;2.25;0.60;;;19.10;52.10;;;;;;5079190;28;20103;-73
2024/02/08 13:59:22;;;;;;;1.50;0.70;;;19.10;52.00;;;;;;5061418;28;20024;-72
2024/02/08 14:01:48;;;;;;;2.83;0.65;;;19.10;52.10;;;;;;5079819;28;20031;-70
2024/02/08 14:04:20;;;;;;;1.02;0.50;;;19.10;52.10;;;;;;5080062;28;20020;-71
2024/02/08 14:06:55;;;;;;;1.25;0.50;;;19.10;52.10;;;;;;5080626;28;20135;-71
2024/02/08 14:09:24;;;;;;;1.73;0.65;;;19.10;52.60;;;;;;5082381;28;20020;-71
2024/02/08 14:11:55;;;;;;;;;;;19.10;52.10;;;;;;5081647;28;20020;-71
2024/02/08 14:14:40;;;;;;;1.02;0.65;;;19.10;52.10;;;;;;5078969;28;19920;-70
2024/02/08 14:17:10;;;;;;;1.52;0.52;;;19.10;52.10;;;;;;5079695;28;20024;-71
2024/02/08 14:19:42;;;;;;;2.30;0.60;;;19.10;52.10;;;;;;5079030;28;20104;-70
2024/02/08 14:22:08;;;;;;;1.08;0.60;;;19.10;52.10;;;;;;5080088;28;20035;-72
2024/02/08 14:24:38;;;;;;;0.90;0.55;;;19.10;52.20;;;;;;5079156;28;20603;-70
2024/02/08 14:27:05;;;;;;;;;;;19.10;52.20;;;;;;5079368;28;20434;-71
2024/02/08 14:29:35;;;;;;;1.40;0.60;;;19.10;52.20;;;;;;5077814;28;19916;-72
2024/02/08 14:32:04;;;;;;;0.98;0.47;;;19.10;52.10;;;;;;5079100;28;20070;-71
2024/02/08 14:34:35;;;;;;;1.63;0.65;;;19.10;52.10;;;;;;5078256;28;20500;-61
2024/02/08 14:37:05;;;;;;;1.08;0.60;;;19.10;52.10;;;;;;5078815;28;20042;-65
2024/02/08 14:39:35;;;;;;;1.45;0.50;;;19.10;52.10;;;;;;5078756;28;20146;-66
2024/02/08 14:42:11;;;;;;;0.85;0.57;;;19.10;52.10;;;;;;5078251;28;20033;-66
2024/02/08 14:44:51;;;;;;;1.17;0.60;;;19.10;52.00;;;;;;5078949;28;20032;-63
2024/02/08 14:47:31;;;;;;;0.80;0.40;;;19.10;52.00;;;;;;5079491;28;20028;-63
2024/02/08 14:49:59;;;;;;;1.13;0.52;;;19.10;52.00;;;;;;5079140;28;20039;-63
2024/02/08 14:52:26;;;;;;;0.60;0.40;;;19.10;52.00;;;;;;5079633;28;20077;-63
2024/02/08 14:54:59;;;;;;;1.88;0.50;;;19.10;52.00;;;;;;5079958;28;20457;-63
2024/02/08 14:57:38;;;;;;;0.63;0.50;;;19.10;52.00;;;;;;5079631;28;20021;-64
2024/02/08 15:00:57;;;;;;;;;;;19.10;52.00;;;;;;5079192;28;20018;-62
2024/02/08 15:02:55;;;;;;;2.28;0.60;;;19.10;51.90;;;;;;5070917;28;20356;-63
2024/02/08 15:05:40;;;;;;;1.05;0.60;;;19.10;51.90;;;;;;5096485;28;20032;-62
2024/02/08 15:08:46;;;;;;;2.63;0.90;;;19.10;51.80;;;;;;5063606;28;20040;-63
2024/02/08 15:11:25;;;;;;;0.88;0.43;;;19.10;51.80;;;;;;5075353;28;20071;-62
2024/02/08 15:13:54;;;;;;;1.17;0.60;;;19.10;51.80;;;;;;5061356;28;20554;-62
2024/02/08 15:16:30;;;;;;;0.85;0.50;;;19.10;51.80;;;;;;5077244;28;20025;-62